sensor_id;sensor_type;location;lat;lon;timestamp;temperature;humidity
24326;DHT22;12448;45.532;5.290;2024-03-02T00:02:06;9.10;90.00
24326;DHT22;12448;45.532;5.290;2024-03-02T00:04:32;9.10;89.90
24326;DHT22;12448;45.532;5.290;2024-03-02T00:06:58;9.00;89.80
24326;DHT22;12448;45.532;5.290;2024-03-02T00:09:23;9.00;89.80
24326;DHT22;12448;45.532;5.290;2024-03-02T00:11:49;9.20;90.00
24326;DHT22;12448;45.532;5.290;2024-03-02T00:14:16;9.00;89.80
24326;DHT22;12448;45.532;5.290;2024-03-02T00:16:42;9.00;89.80
24326;DHT22;12448;45.532;5.290;2024-03-02T00:19:09;9.00;89.80
24326;DHT22;12448;45.532;5.290;2024-03-02T00:21:35;9.00;89.80
24326;DHT22;12448;45.532;5.290;2024-03-02T00:24:18;9.00;89.90
24326;DHT22;12448;45.532;5.290;2024-03-02T00:26:45;9.00;90.00
24326;DHT22;12448;45.532;5.290;2024-03-02T00:29:15;9.10;90.10
24326;DHT22;12448;45.532;5.290;2024-03-02T00:31:42;9.50;90.20
24326;DHT22;12448;45.532;5.290;2024-03-02T00:34:07;8.80;90.10
24326;DHT22;12448;45.532;5.290;2024-03-02T00:36:33;9.30;90.30
24326;DHT22;12448;45.532;5.290;2024-03-02T00:38:59;8.90;90.20
24326;DHT22;12448;45.532;5.290;2024-03-02T00:41:32;8.90;90.20
24326;DHT22;12448;45.532;5.290;2024-03-02T00:46:23;9.20;90.40
24326;DHT22;12448;45.532;5.290;2024-03-02T00:48:58;8.80;90.30
24326;DHT22;12448;45.532;5.290;2024-03-02T00:51:27;8.90;90.40
24326;DHT22;12448;45.532;5.290;2024-03-02T00:53:54;8.90;90.50
24326;DHT22;12448;45.532;5.290;2024-03-02T00:56:23;9.20;90.70
24326;DHT22;12448;45.532;5.290;2024-03-02T00:58:49;8.90;90.60
24326;DHT22;12448;45.532;5.290;2024-03-02T01:01:16;8.80;90.60
24326;DHT22;12448;45.532;5.290;2024-03-02T01:03:42;8.90;90.70
24326;DHT22;12448;45.532;5.290;2024-03-02T01:06:08;8.90;90.80
24326;DHT22;12448;45.532;5.290;2024-03-02T01:08:37;8.80;90.90
24326;DHT22;12448;45.532;5.290;2024-03-02T01:11:04;8.80;91.00
24326;DHT22;12448;45.532;5.290;2024-03-02T01:13:30;8.90;91.10
24326;DHT22;12448;45.532;5.290;2024-03-02T01:15:56;8.90;91.00
24326;DHT22;12448;45.532;5.290;2024-03-02T01:18:22;9.00;91.10
24326;DHT22;12448;45.532;5.290;2024-03-02T01:20:48;9.00;91.10
24326;DHT22;12448;45.532;5.290;2024-03-02T01:23:14;9.00;91.00
24326;DHT22;12448;45.532;5.290;2024-03-02T01:25:39;9.00;91.00
24326;DHT22;12448;45.532;5.290;2024-03-02T01:28:05;9.00;91.00
24326;DHT22;12448;45.532;5.290;2024-03-02T01:30:31;9.00;91.00
24326;DHT22;12448;45.532;5.290;2024-03-02T01:32:57;9.70;91.30
24326;DHT22;12448;45.532;5.290;2024-03-02T01:35:24;9.30;91.20
24326;DHT22;12448;45.532;5.290;2024-03-02T01:37:50;9.60;91.30
24326;DHT22;12448;45.532;5.290;2024-03-02T01:40:16;9.10;91.20
24326;DHT22;12448;45.532;5.290;2024-03-02T01:42:43;9.40;91.30
24326;DHT22;12448;45.532;5.290;2024-03-02T01:45:09;9.70;91.40
24326;DHT22;12448;45.532;5.290;2024-03-02T01:47:35;9.10;91.30
24326;DHT22;12448;45.532;5.290;2024-03-02T01:50:01;8.90;91.30
24326;DHT22;12448;45.532;5.290;2024-03-02T01:52:27;9.10;91.40
24326;DHT22;12448;45.532;5.290;2024-03-02T01:54:53;9.10;91.70
24326;DHT22;12448;45.532;5.290;2024-03-02T01:57:19;9.20;91.40
24326;DHT22;12448;45.532;5.290;2024-03-02T01:59:45;9.20;91.40
24326;DHT22;12448;45.532;5.290;2024-03-02T02:02:13;9.80;91.50
24326;DHT22;12448;45.532;5.290;2024-03-02T02:04:39;9.10;91.30
24326;DHT22;12448;45.532;5.290;2024-03-02T02:07:05;9.20;91.30
24326;DHT22;12448;45.532;5.290;2024-03-02T02:09:32;9.20;91.30
24326;DHT22;12448;45.532;5.290;2024-03-02T02:11:57;9.80;91.60
24326;DHT22;12448;45.532;5.290;2024-03-02T02:14:23;9.20;91.30
24326;DHT22;12448;45.532;5.290;2024-03-02T02:16:49;9.20;91.30
24326;DHT22;12448;45.532;5.290;2024-03-02T02:19:14;9.10;91.20
24326;DHT22;12448;45.532;5.290;2024-03-02T02:21:43;9.10;91.30
24326;DHT22;12448;45.532;5.290;2024-03-02T02:24:09;9.10;91.30
24326;DHT22;12448;45.532;5.290;2024-03-02T02:26:35;9.00;91.40
24326;DHT22;12448;45.532;5.290;2024-03-02T02:29:01;9.30;91.60
24326;DHT22;12448;45.532;5.290;2024-03-02T02:31:26;9.00;91.70
24326;DHT22;12448;45.532;5.290;2024-03-02T02:33:52;8.90;91.80
24326;DHT22;12448;45.532;5.290;2024-03-02T02:36:18;9.20;92.00
24326;DHT22;12448;45.532;5.290;2024-03-02T02:38:45;9.10;92.10
24326;DHT22;12448;45.532;5.290;2024-03-02T02:41:12;8.90;92.10
24326;DHT22;12448;45.532;5.290;2024-03-02T02:43:38;9.20;92.30
24326;DHT22;12448;45.532;5.290;2024-03-02T02:46:05;9.00;92.30
24326;DHT22;12448;45.532;5.290;2024-03-02T02:48:30;9.80;92.60
24326;DHT22;12448;45.532;5.290;2024-03-02T02:50:56;9.10;92.40
24326;DHT22;12448;45.532;5.290;2024-03-02T02:53:22;8.90;92.40
24326;DHT22;12448;45.532;5.290;2024-03-02T02:55:47;9.10;92.50
24326;DHT22;12448;45.532;5.290;2024-03-02T02:58:16;9.10;92.50
24326;DHT22;12448;45.532;5.290;2024-03-02T03:00:41;9.80;92.70
24326;DHT22;12448;45.532;5.290;2024-03-02T03:03:07;9.10;92.50
24326;DHT22;12448;45.532;5.290;2024-03-02T03:05:33;9.00;92.60
24326;DHT22;12448;45.532;5.290;2024-03-02T03:07:58;9.10;92.70
24326;DHT22;12448;45.532;5.290;2024-03-02T03:10:24;9.00;92.80
24326;DHT22;12448;45.532;5.290;2024-03-02T03:12:51;9.00;92.90
24326;DHT22;12448;45.532;5.290;2024-03-02T03:15:17;9.00;92.90
24326;DHT22;12448;45.532;5.290;2024-03-02T03:17:43;9.00;92.90
24326;DHT22;12448;45.532;5.290;2024-03-02T03:20:09;9.00;92.90
24326;DHT22;12448;45.532;5.290;2024-03-02T03:22:36;9.10;93.00
24326;DHT22;12448;45.532;5.290;2024-03-02T03:25:02;9.10;92.90
24326;DHT22;12448;45.532;5.290;2024-03-02T03:27:29;9.10;93.00
24326;DHT22;12448;45.532;5.290;2024-03-02T03:29:58;9.10;92.90
24326;DHT22;12448;45.532;5.290;2024-03-02T03:32:26;9.20;92.90
24326;DHT22;12448;45.532;5.290;2024-03-02T03:34:55;9.20;92.90
24326;DHT22;12448;45.532;5.290;2024-03-02T03:37:20;9.20;92.90
24326;DHT22;12448;45.532;5.290;2024-03-02T03:39:46;9.00;92.90
24326;DHT22;12448;45.532;5.290;2024-03-02T03:42:12;9.20;93.30
24326;DHT22;12448;45.532;5.290;2024-03-02T03:44:37;9.20;93.00
24326;DHT22;12448;45.532;5.290;2024-03-02T03:47:09;9.20;93.00
24326;DHT22;12448;45.532;5.290;2024-03-02T03:49:35;9.20;93.00
24326;DHT22;12448;45.532;5.290;2024-03-02T03:52:01;9.10;93.00
24326;DHT22;12448;45.532;5.290;2024-03-02T03:54:26;9.10;93.10
24326;DHT22;12448;45.532;5.290;2024-03-02T03:56:52;9.10;93.10
24326;DHT22;12448;45.532;5.290;2024-03-02T03:59:18;9.10;93.20
24326;DHT22;12448;45.532;5.290;2024-03-02T04:01:43;9.00;93.20
24326;DHT22;12448;45.532;5.290;2024-03-02T04:04:09;9.30;93.40
24326;DHT22;12448;45.532;5.290;2024-03-02T04:06:38;9.00;93.30
24326;DHT22;12448;45.532;5.290;2024-03-02T04:09:03;9.20;93.40
24326;DHT22;12448;45.532;5.290;2024-03-02T04:11:29;9.10;93.30
24326;DHT22;12448;45.532;5.290;2024-03-02T04:13:56;9.00;93.30
24326;DHT22;12448;45.532;5.290;2024-03-02T04:16:21;9.00;93.30
24326;DHT22;12448;45.532;5.290;2024-03-02T04:18:47;9.00;93.30
24326;DHT22;12448;45.532;5.290;2024-03-02T04:21:13;9.10;93.40
24326;DHT22;12448;45.532;5.290;2024-03-02T04:23:38;9.00;93.30
24326;DHT22;12448;45.532;5.290;2024-03-02T04:26:04;9.40;93.40
24326;DHT22;12448;45.532;5.290;2024-03-02T04:28:29;9.00;93.30
24326;DHT22;12448;45.532;5.290;2024-03-02T04:30:55;9.00;93.30
24326;DHT22;12448;45.532;5.290;2024-03-02T04:33:21;9.00;93.30
24326;DHT22;12448;45.532;5.290;2024-03-02T04:35:46;9.40;93.40
24326;DHT22;12448;45.532;5.290;2024-03-02T04:38:12;9.00;93.20
24326;DHT22;12448;45.532;5.290;2024-03-02T04:40:38;9.00;93.20
24326;DHT22;12448;45.532;5.290;2024-03-02T04:43:03;9.20;93.20
24326;DHT22;12448;45.532;5.290;2024-03-02T04:45:29;9.00;93.10
24326;DHT22;12448;45.532;5.290;2024-03-02T04:47:55;9.00;93.10
24326;DHT22;12448;45.532;5.290;2024-03-02T04:50:20;9.00;93.10
24326;DHT22;12448;45.532;5.290;2024-03-02T04:52:46;9.00;93.10
24326;DHT22;12448;45.532;5.290;2024-03-02T04:55:12;9.20;93.20
24326;DHT22;12448;45.532;5.290;2024-03-02T04:57:52;9.00;93.10
24326;DHT22;12448;45.532;5.290;2024-03-02T05:00:21;9.00;93.10
24326;DHT22;12448;45.532;5.290;2024-03-02T05:02:47;9.00;93.10
24326;DHT22;12448;45.532;5.290;2024-03-02T05:05:13;9.00;93.10
24326;DHT22;12448;45.532;5.290;2024-03-02T05:07:40;9.00;93.10
24326;DHT22;12448;45.532;5.290;2024-03-02T05:10:08;8.90;93.10
24326;DHT22;12448;45.532;5.290;2024-03-02T05:12:34;8.90;93.10
24326;DHT22;12448;45.532;5.290;2024-03-02T05:15:20;8.90;93.20
24326;DHT22;12448;45.532;5.290;2024-03-02T05:17:47;8.90;93.20
24326;DHT22;12448;45.532;5.290;2024-03-02T05:20:13;8.90;93.20
24326;DHT22;12448;45.532;5.290;2024-03-02T05:22:38;8.90;93.30
24326;DHT22;12448;45.532;5.290;2024-03-02T05:25:07;9.00;93.30
24326;DHT22;12448;45.532;5.290;2024-03-02T05:27:33;8.90;93.30
24326;DHT22;12448;45.532;5.290;2024-03-02T05:29:59;8.90;93.40
24326;DHT22;12448;45.532;5.290;2024-03-02T05:32:25;9.00;93.40
24326;DHT22;12448;45.532;5.290;2024-03-02T05:34:51;9.00;93.30
24326;DHT22;12448;45.532;5.290;2024-03-02T05:37:17;9.10;93.40
24326;DHT22;12448;45.532;5.290;2024-03-02T05:39:43;9.00;93.30
24326;DHT22;12448;45.532;5.290;2024-03-02T05:42:09;9.10;93.40
24326;DHT22;12448;45.532;5.290;2024-03-02T05:44:38;9.10;93.50
24326;DHT22;12448;45.532;5.290;2024-03-02T05:47:06;9.10;93.50
24326;DHT22;12448;45.532;5.290;2024-03-02T05:49:34;9.10;93.50
24326;DHT22;12448;45.532;5.290;2024-03-02T05:52:06;9.10;93.50
24326;DHT22;12448;45.532;5.290;2024-03-02T05:54:35;9.10;93.60
24326;DHT22;12448;45.532;5.290;2024-03-02T05:57:01;9.10;93.60
24326;DHT22;12448;45.532;5.290;2024-03-02T05:59:42;9.10;93.70
24326;DHT22;12448;45.532;5.290;2024-03-02T06:02:12;9.30;93.80
24326;DHT22;12448;45.532;5.290;2024-03-02T06:04:44;9.50;93.90
24326;DHT22;12448;45.532;5.290;2024-03-02T06:07:12;9.50;93.90
24326;DHT22;12448;45.532;5.290;2024-03-02T06:09:38;9.50;94.10
24326;DHT22;12448;45.532;5.290;2024-03-02T06:12:04;9.20;94.00
24326;DHT22;12448;45.532;5.290;2024-03-02T06:14:29;9.10;94.10
24326;DHT22;12448;45.532;5.290;2024-03-02T06:16:55;9.20;94.20
24326;DHT22;12448;45.532;5.290;2024-03-02T06:19:21;9.20;94.30
24326;DHT22;12448;45.532;5.290;2024-03-02T06:21:49;9.20;94.40
24326;DHT22;12448;45.532;5.290;2024-03-02T06:24:18;9.80;94.60
24326;DHT22;12448;45.532;5.290;2024-03-02T06:26:47;9.20;94.50
24326;DHT22;12448;45.532;5.290;2024-03-02T06:29:12;9.20;94.60
24326;DHT22;12448;45.532;5.290;2024-03-02T06:31:38;9.20;94.70
24326;DHT22;12448;45.532;5.290;2024-03-02T06:34:07;8.70;94.60
24326;DHT22;12448;45.532;5.290;2024-03-02T06:36:34;9.20;94.80
24326;DHT22;12448;45.532;5.290;2024-03-02T06:38:59;9.20;94.80
24326;DHT22;12448;45.532;5.290;2024-03-02T06:41:25;9.10;94.80
24326;DHT22;12448;45.532;5.290;2024-03-02T06:43:52;9.20;94.90
24326;DHT22;12448;45.532;5.290;2024-03-02T06:46:25;9.30;95.00
24326;DHT22;12448;45.532;5.290;2024-03-02T06:48:51;9.40;95.10
24326;DHT22;12448;45.532;5.290;2024-03-02T06:51:16;9.80;95.20
24326;DHT22;12448;45.532;5.290;2024-03-02T06:53:42;9.20;95.00
24326;DHT22;12448;45.532;5.290;2024-03-02T06:56:08;9.30;95.10
24326;DHT22;12448;45.532;5.290;2024-03-02T06:58:37;9.30;95.20
24326;DHT22;12448;45.532;5.290;2024-03-02T07:01:02;9.40;95.30
24326;DHT22;12448;45.532;5.290;2024-03-02T07:03:28;9.30;95.30
24326;DHT22;12448;45.532;5.290;2024-03-02T07:05:54;9.30;95.30
24326;DHT22;12448;45.532;5.290;2024-03-02T07:08:19;9.30;95.30
24326;DHT22;12448;45.532;5.290;2024-03-02T07:10:45;9.20;95.30
24326;DHT22;12448;45.532;5.290;2024-03-02T07:13:12;9.30;95.40
24326;DHT22;12448;45.532;5.290;2024-03-02T07:15:38;9.30;95.40
24326;DHT22;12448;45.532;5.290;2024-03-02T07:18:23;9.30;95.50
24326;DHT22;12448;45.532;5.290;2024-03-02T07:20:48;9.20;95.50
24326;DHT22;12448;45.532;5.290;2024-03-02T07:23:15;9.30;95.60
24326;DHT22;12448;45.532;5.290;2024-03-02T07:25:40;9.90;95.70
24326;DHT22;12448;45.532;5.290;2024-03-02T07:28:09;9.30;95.50
24326;DHT22;12448;45.532;5.290;2024-03-02T07:30:35;9.90;95.60
24326;DHT22;12448;45.532;5.290;2024-03-02T07:33:00;9.40;95.50
24326;DHT22;12448;45.532;5.290;2024-03-02T07:35:26;9.60;95.50
24326;DHT22;12448;45.532;5.290;2024-03-02T07:37:53;9.90;95.50
24326;DHT22;12448;45.532;5.290;2024-03-02T07:40:20;9.60;95.30
24326;DHT22;12448;45.532;5.290;2024-03-02T07:42:45;9.60;95.20
24326;DHT22;12448;45.532;5.290;2024-03-02T07:45:11;10.20;95.40
24326;DHT22;12448;45.532;5.290;2024-03-02T07:47:37;10.10;95.30
24326;DHT22;12448;45.532;5.290;2024-03-02T07:50:03;9.70;95.20
24326;DHT22;12448;45.532;5.290;2024-03-02T07:52:32;9.80;95.20
24326;DHT22;12448;45.532;5.290;2024-03-02T07:54:57;9.80;95.20
24326;DHT22;12448;45.532;5.290;2024-03-02T07:57:23;9.80;95.10
24326;DHT22;12448;45.532;5.290;2024-03-02T07:59:49;9.90;95.10
24326;DHT22;12448;45.532;5.290;2024-03-02T08:02:14;10.00;95.10
24326;DHT22;12448;45.532;5.290;2024-03-02T08:04:41;10.00;95.00
24326;DHT22;12448;45.532;5.290;2024-03-02T08:07:06;10.10;95.10
24326;DHT22;12448;45.532;5.290;2024-03-02T08:09:32;10.10;95.10
24326;DHT22;12448;45.532;5.290;2024-03-02T08:11:58;10.20;95.00
24326;DHT22;12448;45.532;5.290;2024-03-02T08:14:23;10.20;95.20
24326;DHT22;12448;45.532;5.290;2024-03-02T08:16:49;10.30;95.20
24326;DHT22;12448;45.532;5.290;2024-03-02T08:19:15;10.80;95.20
24326;DHT22;12448;45.532;5.290;2024-03-02T08:21:42;10.50;95.00
24326;DHT22;12448;45.532;5.290;2024-03-02T08:24:08;10.50;95.00
24326;DHT22;12448;45.532;5.290;2024-03-02T08:26:33;10.60;94.90
24326;DHT22;12448;45.532;5.290;2024-03-02T08:28:59;10.60;94.80
24326;DHT22;12448;45.532;5.290;2024-03-02T08:31:27;10.60;94.70
24326;DHT22;12448;45.532;5.290;2024-03-02T08:33:53;10.70;94.50
24326;DHT22;12448;45.532;5.290;2024-03-02T08:36:18;10.70;94.50
24326;DHT22;12448;45.532;5.290;2024-03-02T08:38:45;11.00;94.40
24326;DHT22;12448;45.532;5.290;2024-03-02T08:41:11;10.80;94.30
24326;DHT22;12448;45.532;5.290;2024-03-02T08:43:40;10.70;94.10
24326;DHT22;12448;45.532;5.290;2024-03-02T08:46:06;10.80;94.00
24326;DHT22;12448;45.532;5.290;2024-03-02T08:48:32;10.80;94.10
24326;DHT22;12448;45.532;5.290;2024-03-02T08:50:58;10.70;94.00
24326;DHT22;12448;45.532;5.290;2024-03-02T08:53:24;10.90;94.10
24326;DHT22;12448;45.532;5.290;2024-03-02T08:55:49;10.90;94.00
24326;DHT22;12448;45.532;5.290;2024-03-02T08:58:15;10.90;94.00
24326;DHT22;12448;45.532;5.290;2024-03-02T09:00:41;10.80;93.90
24326;DHT22;12448;45.532;5.290;2024-03-02T09:03:07;10.90;93.90
24326;DHT22;12448;45.532;5.290;2024-03-02T09:05:33;10.90;93.90
24326;DHT22;12448;45.532;5.290;2024-03-02T09:07:58;10.90;93.90
24326;DHT22;12448;45.532;5.290;2024-03-02T09:10:24;10.90;93.90
24326;DHT22;12448;45.532;5.290;2024-03-02T09:12:50;10.70;93.80
24326;DHT22;12448;45.532;5.290;2024-03-02T09:15:16;10.90;93.90
24326;DHT22;12448;45.532;5.290;2024-03-02T09:17:41;10.90;94.00
24326;DHT22;12448;45.532;5.290;2024-03-02T09:20:07;11.10;94.10
24326;DHT22;12448;45.532;5.290;2024-03-02T09:22:33;11.00;93.90
24326;DHT22;12448;45.532;5.290;2024-03-02T09:24:58;11.10;93.70
24326;DHT22;12448;45.532;5.290;2024-03-02T09:27:24;11.00;93.50
24326;DHT22;12448;45.532;5.290;2024-03-02T09:29:50;11.10;93.50
24326;DHT22;12448;45.532;5.290;2024-03-02T09:32:16;11.10;93.50
24326;DHT22;12448;45.532;5.290;2024-03-02T09:34:42;11.10;93.40
24326;DHT22;12448;45.532;5.290;2024-03-02T09:37:08;11.10;93.40
24326;DHT22;12448;45.532;5.290;2024-03-02T09:39:34;11.10;93.40
24326;DHT22;12448;45.532;5.290;2024-03-02T09:42:00;11.10;93.40
24326;DHT22;12448;45.532;5.290;2024-03-02T09:44:26;11.00;93.40
24326;DHT22;12448;45.532;5.290;2024-03-02T09:46:52;11.00;93.40
24326;DHT22;12448;45.532;5.290;2024-03-02T09:49:18;11.20;93.40
24326;DHT22;12448;45.532;5.290;2024-03-02T09:51:48;10.90;93.20
24326;DHT22;12448;45.532;5.290;2024-03-02T09:54:17;10.90;93.20
24326;DHT22;12448;45.532;5.290;2024-03-02T09:56:44;10.90;93.30
24326;DHT22;12448;45.532;5.290;2024-03-02T09:59:10;10.80;93.30
24326;DHT22;12448;45.532;5.290;2024-03-02T10:01:36;11.40;93.40
24326;DHT22;12448;45.532;5.290;2024-03-02T10:04:01;10.80;93.30
24326;DHT22;12448;45.532;5.290;2024-03-02T10:06:30;10.80;93.30
24326;DHT22;12448;45.532;5.290;2024-03-02T10:08:55;10.50;93.30
24326;DHT22;12448;45.532;5.290;2024-03-02T10:14:05;10.90;93.50
24326;DHT22;12448;45.532;5.290;2024-03-02T10:16:38;10.90;93.50
24326;DHT22;12448;45.532;5.290;2024-03-02T10:19:21;10.90;93.50
24326;DHT22;12448;45.532;5.290;2024-03-02T10:21:49;11.10;93.60
24326;DHT22;12448;45.532;5.290;2024-03-02T10:24:15;11.00;93.70
24326;DHT22;12448;45.532;5.290;2024-03-02T10:26:41;11.10;93.90
24326;DHT22;12448;45.532;5.290;2024-03-02T10:29:08;11.10;93.90
24326;DHT22;12448;45.532;5.290;2024-03-02T10:31:37;11.30;93.90
24326;DHT22;12448;45.532;5.290;2024-03-02T10:34:03;11.60;94.00
24326;DHT22;12448;45.532;5.290;2024-03-02T10:36:29;11.40;93.90
24326;DHT22;12448;45.532;5.290;2024-03-02T10:38:56;11.50;93.80
24326;DHT22;12448;45.532;5.290;2024-03-02T10:41:24;11.60;93.70
24326;DHT22;12448;45.532;5.290;2024-03-02T10:43:52;11.60;93.40
24326;DHT22;12448;45.532;5.290;2024-03-02T10:46:28;11.70;93.40
24326;DHT22;12448;45.532;5.290;2024-03-02T10:48:57;11.70;93.30
24326;DHT22;12448;45.532;5.290;2024-03-02T10:51:27;11.70;93.30
24326;DHT22;12448;45.532;5.290;2024-03-02T10:53:54;11.80;93.20
24326;DHT22;12448;45.532;5.290;2024-03-02T10:56:31;11.80;93.30
24326;DHT22;12448;45.532;5.290;2024-03-02T10:59:22;11.90;93.40
24326;DHT22;12448;45.532;5.290;2024-03-02T11:01:50;11.90;93.10
24326;DHT22;12448;45.532;5.290;2024-03-02T11:04:18;11.90;93.10
24326;DHT22;12448;45.532;5.290;2024-03-02T11:06:51;11.90;93.00
24326;DHT22;12448;45.532;5.290;2024-03-02T11:09:22;11.90;93.00
24326;DHT22;12448;45.532;5.290;2024-03-02T11:12:19;11.90;93.00
24326;DHT22;12448;45.532;5.290;2024-03-02T11:14:45;11.90;92.90
24326;DHT22;12448;45.532;5.290;2024-03-02T11:17:14;11.90;92.90
24326;DHT22;12448;45.532;5.290;2024-03-02T11:19:44;11.90;93.00
24326;DHT22;12448;45.532;5.290;2024-03-02T11:22:11;11.80;92.90
24326;DHT22;12448;45.532;5.290;2024-03-02T11:24:37;11.90;93.00
24326;DHT22;12448;45.532;5.290;2024-03-02T11:27:07;11.90;92.90
24326;DHT22;12448;45.532;5.290;2024-03-02T11:32:22;11.90;92.90
24326;DHT22;12448;45.532;5.290;2024-03-02T11:34:51;11.90;92.80
24326;DHT22;12448;45.532;5.290;2024-03-02T11:37:18;11.90;92.90
24326;DHT22;12448;45.532;5.290;2024-03-02T11:39:49;12.00;92.80
24326;DHT22;12448;45.532;5.290;2024-03-02T11:42:18;12.00;92.80
24326;DHT22;12448;45.532;5.290;2024-03-02T11:44:47;12.00;92.80
24326;DHT22;12448;45.532;5.290;2024-03-02T11:47:16;12.00;93.00
24326;DHT22;12448;45.532;5.290;2024-03-02T11:49:45;12.10;93.20
24326;DHT22;12448;45.532;5.290;2024-03-02T11:52:12;12.20;93.20
24326;DHT22;12448;45.532;5.290;2024-03-02T11:54:39;12.20;93.30
24326;DHT22;12448;45.532;5.290;2024-03-02T11:57:08;12.30;93.20
24326;DHT22;12448;45.532;5.290;2024-03-02T11:59:34;12.40;93.30
24326;DHT22;12448;45.532;5.290;2024-03-02T12:02:00;12.50;93.20
24326;DHT22;12448;45.532;5.290;2024-03-02T12:04:26;12.60;93.20
24326;DHT22;12448;45.532;5.290;2024-03-02T12:06:57;12.70;93.10
24326;DHT22;12448;45.532;5.290;2024-03-02T12:09:25;12.80;93.00
24326;DHT22;12448;45.532;5.290;2024-03-02T12:12:10;12.80;92.90
24326;DHT22;12448;45.532;5.290;2024-03-02T12:14:38;12.90;92.70
24326;DHT22;12448;45.532;5.290;2024-03-02T12:17:22;12.80;92.70
24326;DHT22;12448;45.532;5.290;2024-03-02T12:19:48;12.90;92.80
24326;DHT22;12448;45.532;5.290;2024-03-02T12:22:14;13.00;92.70
24326;DHT22;12448;45.532;5.290;2024-03-02T12:24:41;13.10;92.70
24326;DHT22;12448;45.532;5.290;2024-03-02T12:27:07;13.20;92.90
24326;DHT22;12448;45.532;5.290;2024-03-02T12:29:34;13.30;92.60
24326;DHT22;12448;45.532;5.290;2024-03-02T12:32:00;13.40;92.30
24326;DHT22;12448;45.532;5.290;2024-03-02T12:34:27;13.50;92.30
24326;DHT22;12448;45.532;5.290;2024-03-02T12:36:53;13.50;92.20
24326;DHT22;12448;45.532;5.290;2024-03-02T12:39:22;13.60;91.70
24326;DHT22;12448;45.532;5.290;2024-03-02T12:41:49;13.60;91.40
24326;DHT22;12448;45.532;5.290;2024-03-02T12:44:19;13.60;91.50
24326;DHT22;12448;45.532;5.290;2024-03-02T12:46:45;13.60;91.70
24326;DHT22;12448;45.532;5.290;2024-03-02T12:49:12;13.70;91.60
24326;DHT22;12448;45.532;5.290;2024-03-02T12:51:39;13.80;91.70
24326;DHT22;12448;45.532;5.290;2024-03-02T12:54:07;13.80;91.70
24326;DHT22;12448;45.532;5.290;2024-03-02T12:56:33;13.90;91.50
24326;DHT22;12448;45.532;5.290;2024-03-02T12:59:01;13.90;91.20
24326;DHT22;12448;45.532;5.290;2024-03-02T13:01:31;14.00;90.80
24326;DHT22;12448;45.532;5.290;2024-03-02T13:03:58;14.00;90.40
24326;DHT22;12448;45.532;5.290;2024-03-02T13:06:24;13.90;90.50
24326;DHT22;12448;45.532;5.290;2024-03-02T13:08:53;13.90;90.10
24326;DHT22;12448;45.532;5.290;2024-03-02T13:11:18;13.90;90.00
24326;DHT22;12448;45.532;5.290;2024-03-02T13:13:45;13.90;89.40
24326;DHT22;12448;45.532;5.290;2024-03-02T13:16:11;13.90;89.70
24326;DHT22;12448;45.532;5.290;2024-03-02T13:18:41;13.80;89.60
24326;DHT22;12448;45.532;5.290;2024-03-02T13:21:07;13.80;89.10
24326;DHT22;12448;45.532;5.290;2024-03-02T13:23:33;13.80;89.40
24326;DHT22;12448;45.532;5.290;2024-03-02T13:25:59;13.80;89.80
24326;DHT22;12448;45.532;5.290;2024-03-02T13:28:25;13.80;90.00
24326;DHT22;12448;45.532;5.290;2024-03-02T13:30:51;13.80;90.00
24326;DHT22;12448;45.532;5.290;2024-03-02T13:33:17;13.80;89.60
24326;DHT22;12448;45.532;5.290;2024-03-02T13:35:51;13.70;89.10
24326;DHT22;12448;45.532;5.290;2024-03-02T13:38:19;13.60;88.60
24326;DHT22;12448;45.532;5.290;2024-03-02T13:40:45;13.60;88.90
24326;DHT22;12448;45.532;5.290;2024-03-02T13:43:12;13.60;88.80
24326;DHT22;12448;45.532;5.290;2024-03-02T13:45:38;13.50;88.30
24326;DHT22;12448;45.532;5.290;2024-03-02T13:48:07;13.50;88.70
24326;DHT22;12448;45.532;5.290;2024-03-02T13:50:32;13.50;88.80
24326;DHT22;12448;45.532;5.290;2024-03-02T13:52:58;13.40;88.90
24326;DHT22;12448;45.532;5.290;2024-03-02T13:55:24;13.40;89.20
24326;DHT22;12448;45.532;5.290;2024-03-02T13:57:49;13.40;89.60
24326;DHT22;12448;45.532;5.290;2024-03-02T14:00:16;13.40;89.70
24326;DHT22;12448;45.532;5.290;2024-03-02T14:02:43;13.40;89.30
24326;DHT22;12448;45.532;5.290;2024-03-02T14:05:09;13.40;89.50
24326;DHT22;12448;45.532;5.290;2024-03-02T14:07:41;13.40;89.80
24326;DHT22;12448;45.532;5.290;2024-03-02T14:10:07;13.40;90.00
24326;DHT22;12448;45.532;5.290;2024-03-02T14:12:33;13.30;90.10
24326;DHT22;12448;45.532;5.290;2024-03-02T14:14:58;13.30;90.10
24326;DHT22;12448;45.532;5.290;2024-03-02T14:17:25;13.30;90.10
24326;DHT22;12448;45.532;5.290;2024-03-02T14:19:50;13.30;90.40
24326;DHT22;12448;45.532;5.290;2024-03-02T14:22:19;13.40;90.10
24326;DHT22;12448;45.532;5.290;2024-03-02T14:24:45;13.40;90.00
24326;DHT22;12448;45.532;5.290;2024-03-02T14:27:11;13.40;89.40
24326;DHT22;12448;45.532;5.290;2024-03-02T14:29:39;13.40;88.70
24326;DHT22;12448;45.532;5.290;2024-03-02T14:32:06;13.30;88.80
24326;DHT22;12448;45.532;5.290;2024-03-02T14:34:31;13.30;88.60
24326;DHT22;12448;45.532;5.290;2024-03-02T14:36:58;13.30;88.60
24326;DHT22;12448;45.532;5.290;2024-03-02T14:39:24;13.30;88.40
24326;DHT22;12448;45.532;5.290;2024-03-02T14:41:50;13.30;88.40
24326;DHT22;12448;45.532;5.290;2024-03-02T14:44:15;13.30;88.70
24326;DHT22;12448;45.532;5.290;2024-03-02T14:46:42;13.30;88.80
24326;DHT22;12448;45.532;5.290;2024-03-02T14:49:07;13.30;88.70
24326;DHT22;12448;45.532;5.290;2024-03-02T14:51:33;13.30;87.90
24326;DHT22;12448;45.532;5.290;2024-03-02T14:53:59;13.30;87.50
24326;DHT22;12448;45.532;5.290;2024-03-02T14:56:24;13.30;86.70
24326;DHT22;12448;45.532;5.290;2024-03-02T14:58:50;13.20;86.20
24326;DHT22;12448;45.532;5.290;2024-03-02T15:01:19;13.30;86.60
24326;DHT22;12448;45.532;5.290;2024-03-02T15:03:49;13.20;85.70
24326;DHT22;12448;45.532;5.290;2024-03-02T15:06:15;13.30;85.80
24326;DHT22;12448;45.532;5.290;2024-03-02T15:08:41;13.30;85.80
24326;DHT22;12448;45.532;5.290;2024-03-02T15:11:11;13.30;86.00
24326;DHT22;12448;45.532;5.290;2024-03-02T15:13:40;13.30;86.30
24326;DHT22;12448;45.532;5.290;2024-03-02T15:16:07;13.30;86.30
24326;DHT22;12448;45.532;5.290;2024-03-02T15:18:32;13.40;86.70
24326;DHT22;12448;45.532;5.290;2024-03-02T15:21:00;13.40;86.90
24326;DHT22;12448;45.532;5.290;2024-03-02T15:23:25;13.40;87.00
24326;DHT22;12448;45.532;5.290;2024-03-02T15:25:51;13.40;87.30
24326;DHT22;12448;45.532;5.290;2024-03-02T15:28:17;13.40;87.40
24326;DHT22;12448;45.532;5.290;2024-03-02T15:30:49;13.30;87.40
24326;DHT22;12448;45.532;5.290;2024-03-02T15:33:15;13.30;87.60
24326;DHT22;12448;45.532;5.290;2024-03-02T15:35:43;13.30;87.70
24326;DHT22;12448;45.532;5.290;2024-03-02T15:38:09;13.30;87.70
24326;DHT22;12448;45.532;5.290;2024-03-02T15:40:37;13.30;87.70
24326;DHT22;12448;45.532;5.290;2024-03-02T15:43:03;13.30;87.80
24326;DHT22;12448;45.532;5.290;2024-03-02T15:45:29;13.30;87.80